IE-0037 weather

Gay Tracy Airstrip
County Offaly, Ireland

Public forecast

Using degrees Celsius for public forecast. Weather courtesy of forecast.io.

Closest aviation weather report (METAR) to Gay Tracy Airstrip

Closest report is Shannon Airport, 41.3 nm (76.4 km) WSW. Retrieved 2020/07/03 16:30 UTC (23 minutes ago):

EINN 031630Z 24012KT 7000 -DZ FEW008 SCT012 BKN015 17/15 Q1006 TEMPO 4000 BKN007

Closest aviation forecast (TAF) to Gay Tracy Airstrip

Closest forecast is Shannon Airport, 41.3 nm (76.4 km) WSW. Retrieved 2020/07/03 12:09 UTC (5 hours ago):

TAF EINN 031100Z 0312/0412 21013KT 8000 BKN012 TEMPO 0312/0317 3500 -RADZ BKN007 BECMG 0317/0319 24009KT 3500 -RADZ BKN007 TEMPO 0319/0406 2000 BR BKN003 PROB30 TEMPO 0320/0402 0700 FG BKN001 PROB40 TEMPO 0409/0412 2000 BR BKN003